Joaquim Gomes, Brazil
Current Conditions -  °F | °C
As of 6:00 AM on Sunday 21 Dec 2014 (Local Time) from SBMO Reporting Station
Few Clouds Few Clouds  
Wind Chill: 73°   Ceiling: Unl
Heat Index: 73°   Visibility: 6mi
Dew Point: 73°   Wind: 5mph
Humidity: 100%   Direction: 60°ENE
Pressure: 29.94"   Gusts: NA
Location:  9.13°S, 35.75°W
Report Text: SBMO 210900Z 06004KT 9999 FEW020 23/23 Q1014
Loading
Personal Weather Stations






























Interactive Weather Map New forecast layout! Learn more

10-Day Weather Forecast

Advertisements
Track Severe Weather on mobile